Date,TemperatureHighF,TemperatureAvgF,TemperatureLowF,DewpointHighF,DewpointAvgF,DewpointLowF,HumidityHigh,HumidityAvg,HumidityLow,PressureMaxIn,PressureMinIn,WindSpeedMaxMPH,WindSpeedAvgMPH,GustSpeedMaxMPH,PrecipitationSumIn
2013-1-1,71.0,69.0,67.0,71.0,67.4,64.0,100,95,84,0.00,40.00,17,10,33,0.04
2013-1-2,71.0,68.7,66.0,71.0,68.6,66.0,100,99,94,0.00,40.00,14,11,34,0.36
2013-1-3,71.0,68.3,66.0,71.0,68.1,66.0,100,99,89,0.00,40.00,16,12,34,0.42
2013-1-4,74.0,70.3,69.0,70.0,67.3,65.0,100,90,83,0.00,40.00,22,18,51,0.02
2013-1-5,72.0,69.6,67.0,72.0,68.9,67.0,100,97,86,0.00,40.00,27,20,51,0.49
2013-1-6,74.0,70.5,67.0,71.0,69.2,66.0,100,96,85,0.00,40.00,28,21,52,0.14
2013-1-7,74.0,70.0,67.0,72.0,69.2,67.0,100,97,92,0.00,40.00,25,16,45,0.08
2013-1-8,73.0,69.7,66.0,72.0,68.8,66.0,100,98,91,0.00,40.00,21,17,42,0.23
2013-1-9,75.0,69.8,67.0,72.0,69.0,67.0,100,97,90,0.00,40.00,20,17,38,0.17
2013-1-10,76.0,71.7,68.0,70.0,67.8,64.0,100,88,77,0.00,40.00,18,14,36,0.04
2013-1-11,78.0,70.8,66.0,70.0,67.7,65.0,100,90,76,0.00,40.00,19,10,33,0.01
2013-1-12,77.0,69.9,65.0,74.0,69.0,65.0,100,97,87,0.00,40.00,13,6,27,0.02
2013-1-13,81.0,71.2,66.0,75.0,69.5,65.0,100,95,79,0.00,40.00,6,4,14,0.01
2013-1-14,72.0,68.8,66.0,71.0,68.7,65.0,100,100,93,0.00,40.00,10,4,26,0.66
2013-1-15,78.0,69.1,61.0,69.0,64.3,58.0,100,86,66,0.00,40.00,6,4,15,0.02
2013-1-16,82.0,69.2,61.0,67.0,62.3,55.0,95,80,57,0.00,40.00,7,4,19,0.00
2013-1-17,79.0,68.7,63.0,66.0,62.7,60.0,100,83,61,0.00,40.00,7,3,17,0.00
2013-1-18,81.0,69.8,63.0,66.0,62.1,54.0,93,77,61,0.00,40.00,7,5,18,0.00
2013-1-19,77.0,69.5,64.0,61.0,57.0,52.0,72,64,54,0.00,40.00,9,7,24,0.01
2013-1-20,75.0,68.7,65.0,62.0,58.6,56.0,79,70,61,0.00,40.00,11,7,23,0.01
2013-1-21,74.0,69.4,66.0,65.0,61.5,57.0,86,76,66,0.00,40.00,14,11,26,0.01
2013-1-22,75.0,71.1,68.0,70.0,65.1,61.0,90,81,73,0.00,40.00,16,12,29,0.00
2013-1-23,75.0,69.4,66.0,69.0,65.0,61.0,100,86,75,0.00,40.00,18,12,34,0.23
2013-1-24,73.0,68.2,65.0,70.0,67.5,65.0,100,98,87,0.00,40.00,16,8,30,0.60
2013-1-25,82.0,71.5,64.0,72.0,68.7,64.0,100,92,69,0.00,40.00,7,4,17,0.01
2013-1-26,81.0,70.9,65.0,71.0,66.6,64.0,100,87,68,0.00,40.00,12,5,38,0.01
2013-1-27,77.0,69.3,61.0,73.0,67.4,61.0,100,94,86,0.00,40.00,14,7,32,1.13
2013-1-28,69.0,65.3,62.0,69.0,65.3,62.0,100,100,100,0.00,40.00,9,4,20,2.55
2013-1-29,78.0,69.2,64.0,74.0,67.8,64.0,100,96,81,0.00,40.00,7,4,13,0.01
2013-1-30,78.0,70.6,66.0,72.0,68.5,66.0,100,93,77,0.00,40.00,8,4,16,0.01
2013-1-31,74.0,70.1,68.0,70.0,68.3,65.0,100,94,87,0.00,40.00,11,7,22,0.01
2013-2-1,75.0,70.3,66.0,66.0,63.2,59.0,92,79,67,0.00,40.00,24,16,41,0.01
2013-2-2,76.0,70.6,67.0,68.0,64.1,61.0,95,80,69,0.00,40.00,16,13,35,0.01
2013-2-3,75.0,68.6,66.0,63.0,61.4,59.0,91,78,66,0.00,40.00,20,13,36,0.00
2013-2-4,74.0,69.8,68.0,68.0,63.3,59.0,93,80,70,0.00,40.00,20,17,44,0.02
2013-2-5,76.0,69.3,66.0,66.0,63.3,60.0,96,82,63,0.00,40.00,18,14,37,0.04
2013-2-6,74.0,69.0,64.0,69.0,67.1,64.0,100,94,83,0.00,40.00,16,10,31,0.22
2013-2-7,74.0,70.5,67.0,71.0,69.5,67.0,100,97,89,0.00,40.00,16,11,31,0.04
2013-2-8,78.0,71.2,67.0,70.0,68.6,67.0,100,92,76,0.00,40.00,16,10,30,0.01
2013-2-9,77.0,70.7,66.0,71.0,68.0,66.0,100,91,80,0.00,40.00,15,8,36,0.01
2013-2-10,73.0,69.7,67.0,70.0,67.9,66.0,100,94,85,0.00,40.00,21,15,42,0.08
2013-2-11,70.0,68.7,67.0,69.0,66.7,63.0,100,94,84,0.00,40.00,17,12,32,0.08
2013-2-12,72.0,68.4,65.0,66.0,61.9,56.0,100,80,71,0.00,40.00,16,12,30,0.01
2013-2-13,73.0,68.3,66.0,63.0,59.9,55.0,86,75,66,0.00,40.00,14,10,30,0.02
2013-2-14,76.0,68.8,64.0,65.0,61.9,56.0,92,79,68,0.00,40.00,14,10,27,0.02
2013-2-15,76.0,70.5,66.0,69.0,65.3,62.0,99,85,71,0.00,40.00,19,14,42,0.02
2013-2-16,75.0,71.1,68.0,69.0,64.2,59.0,99,79,66,0.00,40.00,23,19,45,0.03
2013-2-17,75.0,70.7,67.0,67.0,64.6,62.0,96,81,71,0.00,40.00,22,20,50,0.01
2013-2-18,74.0,70.3,68.0,65.0,62.4,59.0,87,76,63,0.00,40.00,22,19,44,0.00
2013-2-19,74.0,69.0,65.0,67.0,64.0,61.0,100,85,72,0.00,40.00,20,18,41,0.05
2013-2-20,73.0,69.2,66.0,68.0,66.3,63.0,100,91,78,0.00,40.00,19,15,38,0.22
2013-2-21,71.0,69.0,66.0,70.0,67.3,66.0,100,94,87,0.00,40.00,20,15,38,0.24
2013-2-22,72.0,68.8,66.0,70.0,67.8,66.0,100,97,87,0.00,40.00,22,16,41,0.32
2013-2-23,74.0,68.9,65.0,71.0,67.7,65.0,100,96,86,0.00,40.00,19,15,40,0.23
2013-2-24,74.0,69.7,67.0,66.0,64.5,63.0,91,84,75,0.00,40.00,20,16,39,0.02
2013-2-25,74.0,70.0,66.0,68.0,65.2,61.0,95,85,75,0.00,40.00,17,14,36,0.01
2013-2-26,76.0,70.1,66.0,69.0,66.1,63.0,100,87,75,0.00,40.00,19,15,38,0.04
2013-2-27,76.0,70.9,67.0,66.0,62.8,59.0,88,76,58,0.00,40.00,19,16,38,0.01
2013-2-28,76.0,70.0,68.0,65.0,62.4,59.0,87,77,61,0.00,40.00,17,14,36,0.00
2013-3-1,75.0,69.7,66.0,64.0,62.1,59.0,90,77,68,0.00,40.00,19,17,38,0.00
2013-3-2,75.0,70.0,66.0,63.0,61.1,59.0,87,74,57,0.00,40.00,24,18,44,0.01
2013-3-3,76.0,70.0,66.0,63.0,58.2,53.0,83,67,55,0.00,40.00,19,15,39,0.02
2013-3-4,75.0,69.9,66.0,62.0,58.7,55.0,76,68,61,0.00,40.00,20,15,36,0.01
2013-3-5,76.0,70.0,67.0,65.0,59.7,56.0,87,70,55,0.00,40.00,17,13,34,0.01
2013-3-6,75.0,70.4,66.0,67.0,65.3,63.0,100,84,67,0.00,40.00,15,11,29,0.04
2013-3-7,78.0,67.8,64.0,72.0,66.1,62.0,100,94,73,0.00,40.00,7,4,20,0.47
2013-3-8,83.0,70.8,62.0,66.0,61.0,55.0,100,74,47,0.00,40.00,13,5,22,0.02
2013-3-9,87.0,74.8,66.0,68.0,65.6,64.0,100,75,49,0.00,40.00,14,7,30,0.02
2013-3-10,78.0,69.2,64.0,72.0,66.8,63.0,100,93,76,0.00,40.00,10,4,22,0.17
2013-3-11,76.0,67.9,62.0,69.0,64.0,62.0,100,88,68,0.00,40.00,6,3,15,0.01
2013-3-12,79.0,69.7,64.0,67.0,63.1,59.0,96,80,61,0.00,40.00,6,3,16,0.01
2013-3-13,78.0,69.7,63.0,65.0,62.1,60.0,97,78,64,0.00,40.00,8,5,20,0.00
2013-3-14,77.0,68.1,62.0,68.0,63.8,60.0,100,87,65,0.00,40.00,6,3,14,0.00
2013-3-15,79.0,67.8,62.0,68.0,63.3,59.0,100,87,58,0.00,40.00,12,6,26,0.33
2013-3-16,75.0,68.2,64.0,63.0,58.6,54.0,91,72,58,0.00,40.00,13,7,32,0.28
2013-3-17,80.0,67.4,60.0,63.0,59.4,57.0,100,77,54,0.00,40.00,7,4,20,0.06
2013-3-18,73.0,65.8,58.0,66.0,60.6,58.0,100,85,63,0.00,40.00,8,4,15,0.01
2013-3-19,78.0,69.4,61.0,67.0,64.0,61.0,100,84,64,0.00,40.00,9,4,20,0.00
2013-3-20,84.0,72.2,64.0,71.0,66.0,61.0,94,82,61,0.00,40.00,9,4,21,0.00
2013-3-21,87.0,74.4,66.0,73.0,68.2,61.0,100,82,64,0.00,40.00,11,4,22,0.00
2013-3-22,80.0,72.8,66.0,72.0,68.8,66.0,100,88,70,0.00,40.00,13,5,28,1.58
2013-3-23,74.0,67.8,64.0,71.0,67.0,64.0,100,97,90,0.00,40.00,11,6,22,2.39
2013-3-24,69.0,67.5,66.0,68.0,67.0,66.0,100,99,94,0.00,40.00,10,8,24,0.28
2013-3-25,76.0,69.7,66.0,73.0,69.1,66.0,100,98,87,0.00,40.00,10,6,23,0.01
2013-3-26,79.0,71.9,67.0,73.0,69.5,67.0,100,93,76,0.00,40.00,8,6,19,0.01
2013-3-27,69.0,67.9,66.0,69.0,67.9,66.0,100,100,100,0.00,40.00,17,9,36,0.27
2013-3-28,76.0,71.7,67.0,71.0,68.8,67.0,100,91,80,0.00,40.00,14,12,27,0.09
2013-3-29,73.0,68.7,66.0,70.0,67.0,64.0,100,94,81,0.00,40.00,14,10,30,0.11
2013-3-30,78.0,70.4,65.0,70.0,66.2,56.0,100,87,66,0.00,40.00,10,5,23,0.01
2013-3-31,75.0,68.2,64.0,60.0,55.0,52.0,71,63,53,0.00,40.00,9,6,24,0.01
2013-4-1,75.0,67.6,63.0,64.0,58.0,54.0,82,72,58,0.00,40.00,10,6,24,0.01
2013-4-2,75.0,67.5,62.0,60.0,57.4,55.0,90,71,54,0.00,40.00,8,5,18,0.00
2013-4-3,76.0,67.6,61.0,65.0,62.1,59.0,98,84,67,0.00,40.00,12,6,25,0.01
2013-4-4,80.0,71.0,64.0,69.0,66.5,63.0,100,87,66,0.00,40.00,11,6,23,0.01
2013-4-5,77.0,71.7,67.0,70.0,68.2,66.0,100,89,77,0.00,40.00,13,9,27,0.00
2013-4-6,77.0,73.1,70.0,75.0,72.0,70.0,100,97,86,0.00,40.00,18,11,38,0.00
2013-4-7,80.0,74.2,69.0,74.0,72.0,69.0,100,93,76,0.00,40.00,15,10,36,0.01
2013-4-8,80.0,72.6,69.0,73.0,70.2,68.0,100,93,72,0.00,40.00,14,10,29,0.01
2013-4-9,81.0,73.1,68.0,73.0,69.9,68.0,100,90,74,0.00,40.00,15,10,30,0.05
2013-4-10,79.0,74.4,68.0,74.0,71.2,68.0,100,90,76,0.00,40.00,17,12,33,0.05
2013-4-11,84.0,75.0,69.0,74.0,71.6,69.0,100,90,70,0.00,40.00,13,8,33,0.02
2013-4-12,79.0,72.6,68.0,75.0,70.4,65.0,100,94,70,0.00,40.00,11,6,24,0.06
2013-4-13,82.0,72.5,68.0,74.0,69.8,66.0,100,92,65,0.00,40.00,8,4,21,0.08
2013-4-14,81.0,71.1,66.0,74.0,69.4,66.0,100,95,67,0.00,40.00,11,6,29,0.25
2013-4-15,79.0,70.6,66.0,77.0,70.4,66.0,100,99,90,0.00,40.00,5,2,13,0.16
2013-4-16,83.0,73.7,64.0,75.0,70.4,64.0,100,90,72,0.00,40.00,10,5,20,0.01
2013-4-17,80.0,73.6,69.0,74.0,71.3,69.0,100,93,82,0.00,40.00,14,11,32,0.01
2013-4-18,78.0,72.7,69.0,74.0,70.6,68.0,100,94,79,0.00,40.00,15,12,33,0.01
2013-4-19,75.0,70.5,69.0,75.0,70.2,68.0,100,99,94,0.00,40.00,15,11,35,0.54
2013-4-20,82.0,74.0,68.0,75.0,70.4,68.0,100,90,72,0.00,40.00,11,6,22,0.01
2013-4-21,84.0,73.0,67.0,74.0,70.3,67.0,100,92,69,0.00,40.00,6,3,13,0.01
2013-4-22,76.0,71.4,67.0,75.0,71.0,67.0,100,99,90,0.00,40.00,8,3,20,0.26
2013-4-23,80.0,73.0,69.0,75.0,71.2,69.0,100,95,79,0.00,40.00,8,4,23,0.04
2013-4-24,81.0,73.0,65.0,74.0,71.0,65.0,100,94,75,0.00,40.00,9,6,22,0.26
2013-4-25,80.0,74.0,69.0,74.0,70.5,68.0,100,89,76,0.00,40.00,16,10,32,0.11
2013-4-26,80.0,74.1,70.0,72.0,69.2,67.0,96,85,72,0.00,40.00,19,12,36,0.01
2013-4-27,82.0,74.1,68.0,71.0,68.7,67.0,100,84,66,0.00,40.00,12,7,26,0.01
2013-4-28,83.0,74.7,66.0,74.0,70.0,66.0,100,86,71,0.00,40.00,9,4,21,0.01
2013-4-29,89.0,76.3,69.0,75.0,70.1,68.0,100,83,55,0.00,40.00,8,4,24,0.00
2013-4-30,84.0,75.9,68.0,78.0,72.0,67.0,100,88,69,0.00,40.00,7,4,17,0.00
2013-5-1,81.0,74.8,70.0,73.0,70.8,70.0,100,88,72,0.00,40.00,14,10,28,0.00
2013-5-2,81.0,75.6,70.0,74.0,71.4,68.0,100,87,73,0.00,40.00,14,9,28,0.04
2013-5-3,84.0,75.5,69.0,72.0,70.0,68.0,100,84,64,0.00,40.00,11,6,24,0.01
2013-5-4,84.0,74.3,68.0,72.0,69.8,68.0,100,87,66,0.00,40.00,8,4,21,0.00
2013-5-5,81.0,72.6,67.0,75.0,70.5,67.0,100,94,74,0.00,40.00,10,4,26,0.75
2013-5-6,80.0,72.5,66.0,69.0,66.8,65.0,100,83,64,0.00,40.00,6,4,18,0.66
2013-5-7,79.0,72.9,65.0,69.0,66.6,63.0,100,82,63,0.00,40.00,6,4,18,0.00
2013-5-8,81.0,72.5,64.0,69.0,66.5,63.0,100,83,62,0.00,40.00,7,4,18,0.00
2013-5-9,81.0,73.0,66.0,72.0,69.1,66.0,100,89,69,0.00,40.00,6,4,14,0.00
2013-5-10,80.0,72.9,68.0,73.0,70.8,68.0,100,93,74,0.00,40.00,8,5,21,0.14
2013-5-11,79.0,72.6,69.0,71.0,68.7,66.0,100,88,75,0.00,40.00,13,8,26,0.12
2013-5-12,72.0,69.7,67.0,72.0,69.1,66.0,100,98,86,0.00,40.00,15,11,32,1.54
2013-5-13,79.0,73.5,69.0,74.0,71.9,69.0,100,95,79,0.00,40.00,16,13,36,0.47
2013-5-14,81.0,74.4,70.0,76.0,72.4,70.0,100,94,82,0.00,40.00,19,14,37,0.03
2013-5-15,81.0,75.5,71.0,74.0,72.3,70.0,100,91,78,0.00,40.00,20,13,36,0.01
2013-5-16,81.0,69.6,71.0,74.0,47.7,-99.9,97,87,74,0.00,40.00,16,12,32,0.00
2013-5-17,81.0,74.1,71.0,73.0,63.0,-99.9,96,85,73,0.00,40.00,16,11,28,0.00
2013-5-18,83.0,75.5,69.0,74.0,71.0,69.0,100,87,70,0.00,40.00,9,7,24,0.00
2013-5-19,83.0,73.9,67.0,74.0,70.0,65.0,100,88,73,0.00,40.00,10,5,21,0.01
2013-5-20,82.0,72.2,65.0,69.0,64.0,60.0,100,78,51,0.00,40.00,7,4,16,0.01
2013-5-21,83.0,72.2,64.0,69.0,65.1,61.0,98,80,61,0.00,40.00,5,3,14,0.00
2013-5-22,80.0,73.8,66.0,75.0,69.7,65.0,100,88,72,0.00,40.00,6,4,16,0.01
2013-5-23,86.0,76.7,68.0,77.0,72.5,64.0,100,88,69,0.00,40.00,12,6,25,0.01
2013-5-24,82.0,76.1,71.0,75.0,72.2,70.0,100,88,74,0.00,40.00,13,11,29,0.00
2013-5-25,79.0,75.2,70.0,74.0,71.6,68.0,100,89,81,0.00,40.00,16,13,37,0.01
2013-5-26,81.0,75.4,71.0,73.0,70.2,66.0,96,84,72,0.00,40.00,16,13,32,0.02
2013-5-27,82.0,76.6,72.0,72.0,70.6,69.0,96,82,69,0.00,40.00,16,12,33,0.01
2013-5-28,77.0,72.8,69.0,75.0,71.9,67.0,100,97,86,0.00,40.00,13,8,28,0.30
2013-5-29,82.0,73.2,69.0,79.0,72.8,69.0,100,99,90,0.00,40.00,9,5,24,0.10
2013-5-30,82.0,76.1,71.0,76.0,73.4,71.0,100,92,79,0.00,40.00,13,9,27,0.02
2013-5-31,80.0,75.8,72.0,76.0,73.7,72.0,100,94,81,0.00,40.00,16,11,30,0.02
2013-6-1,81.0,75.4,72.0,77.0,73.5,72.0,100,94,77,0.00,40.00,18,13,37,0.02
2013-6-2,81.0,75.6,71.0,76.0,72.8,68.0,100,91,76,0.00,40.00,19,16,42,0.17
2013-6-3,82.0,76.3,72.0,72.0,69.8,67.0,92,80,67,0.00,40.00,20,16,39,0.01
2013-6-4,83.0,75.5,72.0,72.0,70.0,68.0,93,84,68,0.00,40.00,17,14,36,0.01
2013-6-5,83.0,75.3,71.0,74.0,70.1,67.0,100,84,71,0.00,40.00,19,13,36,0.03
2013-6-6,82.0,75.9,72.0,71.0,68.9,66.0,90,79,67,0.00,40.00,18,14,37,0.01
2013-6-7,80.0,75.2,71.0,72.0,69.6,67.0,98,83,70,0.00,40.00,17,13,37,0.01
2013-6-8,83.0,75.7,72.0,72.0,70.0,68.0,90,83,69,0.00,40.00,16,12,30,0.01
2013-6-9,83.0,75.7,72.0,73.0,70.9,69.0,93,85,69,0.00,40.00,14,11,29,0.00
2013-6-10,80.0,75.3,71.0,74.0,71.1,69.0,94,87,75,0.00,40.00,16,12,31,0.00
2013-6-11,83.0,76.1,71.0,74.0,71.5,70.0,100,86,69,0.00,40.00,15,12,32,0.06
2013-6-12,81.0,75.4,71.0,75.0,72.0,68.0,100,90,75,0.00,40.00,19,15,38,0.15
2013-6-13,79.0,73.9,70.0,75.0,72.0,70.0,100,94,79,0.00,40.00,19,16,41,0.24
2013-6-14,81.0,75.3,72.0,73.0,70.8,69.0,99,86,74,0.00,40.00,18,14,38,0.07
2013-6-15,81.0,74.7,71.0,75.0,71.7,69.0,100,91,73,0.00,40.00,15,11,36,0.10
2013-6-16,81.0,74.9,69.0,73.0,71.2,69.0,100,89,73,0.00,40.00,17,13,35,0.10
2013-6-17,80.0,74.9,70.0,74.0,71.0,69.0,100,88,74,0.00,40.00,17,14,35,0.03
2013-6-18,80.0,75.7,72.0,73.0,71.7,70.0,100,88,74,0.00,40.00,17,14,34,0.01
2013-6-19,83.0,75.7,70.0,75.0,71.4,68.0,100,87,73,0.00,40.00,16,12,30,0.06